createdAt,value
2023-02-02T00:02:02.429Z,96963.89
2023-02-02T00:04:37.177Z,96965.77
2023-02-02T00:07:09.846Z,96973.80
2023-02-02T00:09:41.469Z,96967.71
2023-02-02T00:12:11.580Z,96974.66
2023-02-02T00:14:43.203Z,96971.90
2023-02-02T00:17:13.418Z,96975.34
2023-02-02T00:19:46.689Z,96979.42
2023-02-02T00:22:18.371Z,96981.60
2023-02-02T00:24:48.442Z,96981.89
2023-02-02T00:27:20.080Z,96984.88
2023-02-02T00:29:53.666Z,96982.43
2023-02-02T00:32:25.378Z,96985.36
2023-02-02T00:34:55.478Z,96988.34
2023-02-02T00:37:27.172Z,96991.77
2023-02-02T00:39:57.313Z,96987.05
2023-02-02T00:42:29.080Z,96986.77
2023-02-02T00:45:18.674Z,96988.40
2023-02-02T00:47:51.411Z,96987.73
2023-02-02T00:50:23.719Z,96985.84
2023-02-02T00:52:55.436Z,96989.29
2023-02-02T00:55:26.607Z,96993.02
2023-02-02T00:57:58.494Z,96991.80
2023-02-02T01:00:30.549Z,96996.66
2023-02-02T01:03:04.339Z,96999.25
2023-02-02T01:05:36.734Z,96997.39
2023-02-02T01:08:08.970Z,96998.05
2023-02-02T01:10:40.595Z,96999.00
2023-02-02T01:13:12.443Z,96994.20
2023-02-02T01:15:42.615Z,96996.05
2023-02-02T01:18:15.463Z,96995.84
2023-02-02T01:20:45.615Z,96994.29
2023-02-02T01:23:17.225Z,96997.18
2023-02-02T01:25:53.672Z,96999.58
2023-02-02T01:28:26.106Z,96999.41
2023-02-02T01:31:00.325Z,96999.41
2023-02-02T01:33:32.026Z,96999.11
2023-02-02T01:36:04.764Z,97000.46
2023-02-02T01:38:36.619Z,97004.04
2023-02-02T01:41:09.318Z,97007.67
2023-02-02T01:43:56.734Z,97014.30
2023-02-02T01:46:31.459Z,97016.28
2023-02-02T01:49:08.363Z,97021.00
2023-02-02T01:51:45.389Z,97014.59
2023-02-02T01:54:21.412Z,97019.19
2023-02-02T01:56:57.211Z,97019.98
2023-02-02T01:59:29.849Z,97023.97
2023-02-02T02:02:02.578Z,97024.25
2023-02-02T02:04:35.027Z,97019.00
2023-02-02T02:07:08.083Z,97023.22
2023-02-02T02:09:41.063Z,97025.95
2023-02-02T02:12:15.415Z,97022.38
2023-02-02T02:15:07.998Z,97024.54
2023-02-02T02:17:50.640Z,97024.63
2023-02-02T02:21:06.631Z,97032.67
2023-02-02T02:24:30.010Z,97037.20
2023-02-02T02:27:15.402Z,97041.70
2023-02-02T02:30:10.761Z,97045.55
2023-02-02T02:32:51.968Z,97052.56
2023-02-02T02:35:34.199Z,97057.64
2023-02-02T02:38:10.723Z,97059.11
2023-02-02T02:40:48.395Z,97062.75
2023-02-02T02:43:25.088Z,97063.16
2023-02-02T02:45:58.488Z,97063.46
2023-02-02T02:48:31.302Z,97067.66
2023-02-02T02:51:10.283Z,97067.92
2023-02-02T02:53:42.691Z,97067.65
2023-02-02T02:56:21.852Z,97066.37
2023-02-02T02:59:02.512Z,97069.39
2023-02-02T03:01:40.195Z,97067.90
2023-02-02T03:04:19.454Z,97071.61
2023-02-02T03:06:55.976Z,97073.14
2023-02-02T03:09:32.713Z,97073.91
2023-02-02T03:12:05.023Z,97073.77
2023-02-02T03:14:39.392Z,97076.06
2023-02-02T03:17:11.008Z,97073.39
2023-02-02T03:19:41.103Z,97075.86
2023-02-02T03:22:12.719Z,97074.73
2023-02-02T03:24:42.797Z,97073.33
2023-02-02T03:27:14.472Z,97073.02
2023-02-02T03:29:44.589Z,97073.95
2023-02-02T03:32:16.261Z,97075.08
2023-02-02T03:34:46.481Z,97081.73
2023-02-02T03:37:18.800Z,97081.20
2023-02-02T03:39:50.411Z,97081.58
2023-02-02T03:42:20.498Z,97080.08
2023-02-02T03:44:52.194Z,97079.20
2023-02-02T03:47:22.324Z,97084.50
2023-02-02T03:49:53.968Z,97081.23
2023-02-02T03:52:24.065Z,97081.91
2023-02-02T03:54:55.739Z,97078.67
2023-02-02T03:57:25.899Z,97078.39
2023-02-02T03:59:57.506Z,97076.67
2023-02-02T04:02:27.694Z,97075.69
2023-02-02T04:04:59.633Z,97075.48
2023-02-02T04:07:31.247Z,97077.30
2023-02-02T04:10:01.384Z,97072.95
2023-02-02T04:12:33.047Z,97071.61
2023-02-02T04:15:05.492Z,97069.73
2023-02-02T04:17:37.193Z,97067.31
2023-02-02T04:20:09.612Z,97067.24
2023-02-02T04:22:41.277Z,97064.97
2023-02-02T04:25:11.469Z,97072.17
2023-02-02T04:27:43.075Z,97065.99
2023-02-02T04:30:13.833Z,97064.11
2023-02-02T04:32:45.450Z,97063.00
2023-02-02T04:35:15.595Z,97069.34
2023-02-02T04:37:47.320Z,97061.98
2023-02-02T04:40:17.567Z,97068.45
2023-02-02T04:42:49.215Z,97065.13
2023-02-02T04:45:19.558Z,97062.41
2023-02-02T04:47:51.602Z,97061.23
2023-02-02T04:50:23.520Z,97065.69
2023-02-02T04:52:55.169Z,97067.81
2023-02-02T04:55:26.093Z,97064.27
2023-02-02T04:57:57.900Z,97061.70
2023-02-02T05:00:28.067Z,97064.59
2023-02-02T05:02:59.675Z,97066.04
2023-02-02T05:05:29.903Z,97064.84
2023-02-02T05:08:01.557Z,97066.23
2023-02-02T05:10:31.842Z,97070.46
2023-02-02T05:13:03.528Z,97076.27
2023-02-02T05:15:33.972Z,97077.66
2023-02-02T05:18:05.741Z,97077.86
2023-02-02T05:20:37.347Z,97077.48
2023-02-02T05:23:07.459Z,97080.02
2023-02-02T05:25:39.084Z,97073.34
2023-02-02T05:28:09.183Z,97071.70
2023-02-02T05:30:42.462Z,97069.42
2023-02-02T05:33:14.107Z,97069.05
2023-02-02T05:35:45.666Z,97065.00
2023-02-02T05:38:18.006Z,97064.41
2023-02-02T05:40:50.856Z,97064.76
2023-02-02T05:43:25.315Z,97067.63
2023-02-02T05:45:57.407Z,97063.17
2023-02-02T05:48:29.391Z,97064.96
2023-02-02T05:51:04.620Z,97061.20
2023-02-02T05:53:36.233Z,97059.25
2023-02-02T05:56:08.358Z,97056.81
2023-02-02T05:58:40.092Z,97054.95
2023-02-02T06:01:10.557Z,97054.03
2023-02-02T06:03:42.417Z,97051.70
2023-02-02T06:06:14.574Z,97052.64
2023-02-02T06:08:46.246Z,97053.58
2023-02-02T06:11:17.646Z,97048.57
2023-02-02T06:13:49.320Z,97044.73
2023-02-02T06:16:19.411Z,97045.34
2023-02-02T06:18:51.193Z,97043.66
2023-02-02T06:21:23.154Z,97048.66
2023-02-02T06:23:54.935Z,97049.71
2023-02-02T06:26:27.206Z,97047.70
2023-02-02T06:28:59.025Z,97053.17
2023-02-02T06:31:30.952Z,97048.19
2023-02-02T06:34:02.740Z,97049.08
2023-02-02T06:36:32.920Z,97038.85
2023-02-02T06:39:05.856Z,97038.98
2023-02-02T06:41:37.897Z,97038.63
2023-02-02T06:44:09.863Z,97037.82
2023-02-02T06:46:41.515Z,97038.44
2023-02-02T06:49:11.643Z,97039.00
2023-02-02T06:51:43.404Z,97041.40
2023-02-02T06:54:15.246Z,97040.40
2023-02-02T06:56:46.858Z,97038.92
2023-02-02T06:59:17.024Z,97041.50
2023-02-02T07:01:51.308Z,97041.40
2023-02-02T07:04:23.044Z,97042.38
2023-02-02T07:06:53.188Z,97035.63
2023-02-02T07:09:24.863Z,97035.48
2023-02-02T07:11:54.911Z,97037.52
2023-02-02T07:14:27.057Z,97040.04
2023-02-02T07:16:58.949Z,97032.39
2023-02-02T07:19:29.079Z,97031.88
2023-02-02T07:22:00.683Z,97029.43
2023-02-02T07:24:30.821Z,97024.56
2023-02-02T07:27:02.463Z,97027.77
2023-02-02T07:29:32.742Z,97020.84
2023-02-02T07:32:04.426Z,97011.53
2023-02-02T07:34:34.556Z,97017.45
2023-02-02T07:37:06.176Z,97028.16
2023-02-02T07:39:36.314Z,97024.59
2023-02-02T07:42:08.645Z,97021.52
2023-02-02T07:44:40.617Z,97016.83
2023-02-02T07:47:10.763Z,97015.02
2023-02-02T07:49:42.404Z,97010.70
2023-02-02T07:52:12.508Z,97015.25
2023-02-02T07:54:44.128Z,97015.02
2023-02-02T07:57:14.287Z,97015.30
2023-02-02T07:59:45.967Z,97018.08
2023-02-02T08:02:16.063Z,97018.31
2023-02-02T08:04:48.370Z,97025.39
2023-02-02T08:07:21.442Z,97020.44
2023-02-02T08:09:53.218Z,97023.31
2023-02-02T08:12:26.514Z,97023.54
2023-02-02T08:14:59.054Z,97028.35
2023-02-02T08:17:30.721Z,97024.20
2023-02-02T08:20:00.836Z,97026.30
2023-02-02T08:22:33.391Z,97030.77
2023-02-02T08:25:05.132Z,97030.52
2023-02-02T08:27:37.591Z,97037.15
2023-02-02T08:30:13.699Z,97033.18
2023-02-02T08:32:45.358Z,97031.15
2023-02-02T08:35:15.587Z,97033.58
2023-02-02T08:37:50.102Z,97034.83
2023-02-02T08:40:25.236Z,97030.84
2023-02-02T08:42:57.473Z,97031.34
2023-02-02T08:46:01.811Z,97033.89
2023-02-02T08:48:21.619Z,97036.49
2023-02-02T08:50:58.149Z,97038.53
2023-02-02T08:53:30.743Z,97038.10
2023-02-02T08:56:04.002Z,97044.19
2023-02-02T08:58:36.263Z,97043.08
2023-02-02T09:01:10.517Z,97051.81
2023-02-02T09:03:42.438Z,97052.70
2023-02-02T09:06:16.788Z,97048.95
2023-02-02T09:08:49.154Z,97056.16
2023-02-02T09:11:21.823Z,97057.90
2023-02-02T09:14:01.019Z,97059.55
2023-02-02T09:16:33.410Z,97061.54
2023-02-02T09:19:10.551Z,97065.98
2023-02-02T09:21:42.369Z,97065.28
2023-02-02T09:24:13.266Z,97065.44
2023-02-02T09:26:45.907Z,97066.59
2023-02-02T09:29:18.786Z,97072.77
2023-02-02T09:31:50.487Z,97074.88
2023-02-02T09:34:22.194Z,97074.44
2023-02-02T09:36:52.726Z,97076.66
2023-02-02T09:39:25.511Z,97081.59
2023-02-02T09:42:31.651Z,97085.60
2023-02-02T09:45:07.973Z,97090.19
2023-02-02T09:47:55.975Z,97089.48
2023-02-02T09:50:42.639Z,97092.83
2023-02-02T09:53:21.975Z,97098.60
2023-02-02T09:55:56.872Z,97105.95
2023-02-02T09:58:33.767Z,97113.14
2023-02-02T10:01:09.556Z,97117.29
2023-02-02T10:03:46.438Z,97117.48
2023-02-02T10:06:29.215Z,97120.66
2023-02-02T10:09:09.688Z,97123.06
2023-02-02T10:11:47.292Z,97125.77
2023-02-02T10:14:24.083Z,97128.38
2023-02-02T10:16:58.101Z,97130.15
2023-02-02T10:19:30.781Z,97133.88
2023-02-02T10:22:11.015Z,97136.91
2023-02-02T10:24:42.803Z,97138.31
2023-02-02T10:27:17.786Z,97142.82
2023-02-02T10:29:57.561Z,97148.10
2023-02-02T10:32:35.269Z,97153.18
2023-02-02T10:35:22.863Z,97158.09
2023-02-02T10:38:00.019Z,97162.66
2023-02-02T10:40:43.686Z,97162.51
2023-02-02T10:43:48.837Z,97166.92
2023-02-02T10:46:24.732Z,97170.12
2023-02-02T10:49:12.202Z,97172.56
2023-02-02T10:51:50.134Z,97172.36
2023-02-02T10:54:54.842Z,97175.83
2023-02-02T10:57:45.193Z,97178.62
2023-02-02T11:00:23.585Z,97188.38
2023-02-02T11:02:56.107Z,97183.44
2023-02-02T11:05:47.505Z,97187.02
2023-02-02T11:08:22.588Z,97189.79
2023-02-02T11:10:56.182Z,97191.44
2023-02-02T11:13:31.957Z,97197.31
2023-02-02T11:16:32.573Z,97200.29
2023-02-02T11:19:28.749Z,97203.62
2023-02-02T11:22:02.743Z,97203.27
2023-02-02T11:24:41.219Z,97209.55
2023-02-02T11:27:19.205Z,97206.63
2023-02-02T11:29:53.526Z,97219.11
2023-02-02T11:32:32.544Z,97218.73
2023-02-02T11:35:23.244Z,97217.82
2023-02-02T11:38:10.233Z,97221.58
2023-02-02T11:40:45.315Z,97220.46
2023-02-02T11:43:26.845Z,97223.77
2023-02-02T11:46:03.421Z,97224.03
2023-02-02T11:48:38.750Z,97230.76
2023-02-02T11:51:21.905Z,97231.47
2023-02-02T11:54:06.129Z,97233.55
2023-02-02T11:56:39.663Z,97239.68
2023-02-02T11:59:30.835Z,97243.77
2023-02-02T12:02:28.332Z,97247.23
2023-02-02T12:05:37.090Z,97254.13
2023-02-02T12:08:12.656Z,97258.08
2023-02-02T12:10:49.196Z,97257.98
2023-02-02T12:13:31.623Z,97261.55
2023-02-02T12:16:14.097Z,97265.84
2023-02-02T12:18:59.628Z,97266.33
2023-02-02T12:21:41.541Z,97270.91
2023-02-02T12:24:29.495Z,97267.42
2023-02-02T12:27:16.651Z,97275.06
2023-02-02T12:30:03.362Z,97272.93
2023-02-02T12:33:09.399Z,97283.48
2023-02-02T12:35:57.829Z,97280.48
2023-02-02T12:38:43.893Z,97286.20
2023-02-02T12:41:27.992Z,97287.77
2023-02-02T12:44:09.193Z,97296.42
2023-02-02T12:46:51.808Z,97304.14
2023-02-02T12:49:53.123Z,97308.61
2023-02-02T12:52:40.283Z,97313.31
2023-02-02T12:55:23.190Z,97318.25
2023-02-02T12:58:07.570Z,97323.25
2023-02-02T13:00:58.791Z,97334.89
2023-02-02T13:03:42.031Z,97341.09
2023-02-02T13:06:41.192Z,97343.04
2023-02-02T13:09:19.639Z,97348.16
2023-02-02T13:11:57.331Z,97350.48
2023-02-02T13:14:34.217Z,97359.70
2023-02-02T13:17:11.079Z,97359.77
2023-02-02T13:19:46.120Z,97363.70
2023-02-02T13:22:22.057Z,97365.95
2023-02-02T13:25:01.401Z,97367.77
2023-02-02T13:27:33.993Z,97368.61
2023-02-02T13:30:14.555Z,97371.01
2023-02-02T13:32:48.169Z,97371.14
2023-02-02T13:35:24.661Z,97375.04
2023-02-02T13:38:04.214Z,97378.78
2023-02-02T13:40:39.805Z,97381.52
2023-02-02T13:43:24.684Z,97380.67
2023-02-02T13:46:07.716Z,97388.56
2023-02-02T13:48:49.383Z,97397.86
2023-02-02T13:51:43.497Z,97400.92
2023-02-02T13:55:02.558Z,97408.45
2023-02-02T14:00:46.013Z,97414.52
2023-02-02T14:03:39.703Z,97416.54
2023-02-02T14:06:15.163Z,97422.27
2023-02-02T14:08:52.673Z,97428.08
2023-02-02T14:11:29.879Z,97431.65
2023-02-02T14:14:28.782Z,97434.59
2023-02-02T14:17:01.263Z,97440.14
2023-02-02T14:19:51.042Z,97443.30
2023-02-02T14:22:47.931Z,97453.27
2023-02-02T14:25:55.313Z,97457.07
2023-02-02T14:28:45.387Z,97457.81
2023-02-02T14:31:31.535Z,97470.68
2023-02-02T14:34:30.508Z,97478.36
2023-02-02T14:37:29.721Z,97488.27
2023-02-02T14:40:19.870Z,97494.34
2023-02-02T14:43:21.783Z,97502.57
2023-02-02T14:46:32.948Z,97508.86
2023-02-02T14:49:26.100Z,97517.67
2023-02-02T14:52:05.223Z,97523.09
2023-02-02T14:54:41.109Z,97527.34
2023-02-02T14:57:28.229Z,97532.70
2023-02-02T15:00:01.877Z,97537.77
2023-02-02T15:02:37.433Z,97536.98
2023-02-02T15:05:46.205Z,97538.16
2023-02-02T15:08:25.531Z,97548.77
2023-02-02T15:11:26.548Z,97551.77
2023-02-02T15:14:17.004Z,97553.29
2023-02-02T15:16:49.169Z,97560.52
2023-02-02T15:19:32.293Z,97567.02
2023-02-02T15:22:17.460Z,97574.95
2023-02-02T15:24:50.345Z,97576.39
2023-02-02T15:27:24.844Z,97582.77
2023-02-02T15:30:02.553Z,97593.02
2023-02-02T15:32:35.441Z,97594.81
2023-02-02T15:35:18.851Z,97601.60
2023-02-02T15:37:55.465Z,97606.27
2023-02-02T15:40:29.125Z,97609.23
2023-02-02T15:43:05.214Z,97614.88
2023-02-02T15:45:43.543Z,97618.06
2023-02-02T15:48:25.514Z,97626.18
2023-02-02T15:50:58.780Z,97632.98
2023-02-02T15:53:34.945Z,97637.77
2023-02-02T15:56:21.999Z,97645.95
2023-02-02T15:58:56.247Z,97652.63
2023-02-02T16:01:33.552Z,97661.28
2023-02-02T16:04:18.074Z,97666.87
2023-02-02T16:06:50.973Z,97674.94
2023-02-02T16:09:27.927Z,97679.48
2023-02-02T16:12:01.412Z,97687.58
2023-02-02T16:14:36.293Z,97692.84
2023-02-02T16:17:20.651Z,97701.58
2023-02-02T16:19:57.989Z,97702.75
2023-02-02T16:22:30.964Z,97712.39
2023-02-02T16:25:11.410Z,97713.25
2023-02-02T16:27:49.611Z,97717.98
2023-02-02T16:30:28.928Z,97718.71
2023-02-02T16:33:20.938Z,97730.33
2023-02-02T16:35:51.258Z,97736.69
2023-02-02T16:38:31.180Z,97741.41
2023-02-02T16:41:08.407Z,97744.13
2023-02-02T16:43:41.964Z,97752.70
2023-02-02T16:46:17.653Z,97758.94
2023-02-02T16:49:15.713Z,97762.27
2023-02-02T16:51:49.348Z,97769.30
2023-02-02T16:54:24.009Z,97770.98
2023-02-02T16:57:03.114Z,97771.65
2023-02-02T16:59:38.076Z,97777.30
2023-02-02T17:02:22.120Z,97781.58
2023-02-02T17:04:58.335Z,97782.48
2023-02-02T17:07:32.820Z,97787.17
2023-02-02T17:10:24.912Z,97796.04
2023-02-02T17:12:56.948Z,97804.27
2023-02-02T17:15:34.816Z,97810.84
2023-02-02T17:18:07.638Z,97813.34
2023-02-02T17:20:40.673Z,97818.10
2023-02-02T17:23:19.511Z,97820.11
2023-02-02T17:25:51.162Z,97821.86
2023-02-02T17:28:22.305Z,97827.94
2023-02-02T17:30:58.976Z,97827.73
2023-02-02T17:33:34.389Z,97839.05
2023-02-02T17:36:07.558Z,97838.95
2023-02-02T17:38:39.942Z,97840.06
2023-02-02T17:41:15.257Z,97847.45
2023-02-02T17:43:48.541Z,97850.71
2023-02-02T17:46:20.683Z,97856.95
2023-02-02T17:48:52.826Z,97860.44
2023-02-02T17:51:25.008Z,97872.59
2023-02-02T17:53:59.985Z,97874.94
2023-02-02T17:56:31.980Z,97875.10
2023-02-02T17:59:03.743Z,97882.41
2023-02-02T18:01:39.244Z,97890.20
2023-02-02T18:04:15.324Z,97891.87
2023-02-02T18:06:46.964Z,97900.73
2023-02-02T18:09:17.377Z,97902.52
2023-02-02T18:11:49.979Z,97909.12
2023-02-02T18:14:23.059Z,97911.44
2023-02-02T18:16:56.140Z,97911.42
2023-02-02T18:19:28.009Z,97916.84
2023-02-02T18:21:59.678Z,97918.36
2023-02-02T18:24:29.951Z,97923.34
2023-02-02T18:27:01.662Z,97931.77
2023-02-02T18:29:34.099Z,97935.18
2023-02-02T18:32:06.421Z,97938.10
2023-02-02T18:34:38.264Z,97947.34
2023-02-02T18:37:10.029Z,97950.29
2023-02-02T18:39:42.191Z,97956.23
2023-02-02T18:43:09.177Z,97960.00
2023-02-02T18:45:40.926Z,97971.99
2023-02-02T18:48:11.238Z,97975.59
2023-02-02T18:50:43.217Z,97984.52
2023-02-02T18:53:17.747Z,97982.73
2023-02-02T18:55:50.273Z,97986.30
2023-02-02T18:58:21.950Z,97986.06
2023-02-02T19:00:53.660Z,97991.14
2023-02-02T19:03:25.875Z,97992.88
2023-02-02T19:06:14.913Z,98001.55
2023-02-02T19:08:46.748Z,98010.20
2023-02-02T19:11:21.448Z,98012.53
2023-02-02T19:13:53.307Z,98014.67
2023-02-02T19:16:28.316Z,98019.27
2023-02-02T19:19:05.323Z,98026.80
2023-02-02T19:21:36.980Z,98031.73
2023-02-02T19:24:14.701Z,98039.05
2023-02-02T19:26:50.569Z,98044.30
2023-02-02T19:29:25.135Z,98046.35
2023-02-02T19:32:03.030Z,98052.66
2023-02-02T19:34:36.191Z,98056.59
2023-02-02T19:37:24.386Z,98066.27
2023-02-02T19:40:03.583Z,98071.46
2023-02-02T19:42:35.784Z,98075.40
2023-02-02T19:45:23.222Z,98080.28
2023-02-02T19:47:57.407Z,98102.52
2023-02-02T19:50:37.621Z,98113.17
2023-02-02T19:53:17.328Z,98110.27
2023-02-02T19:55:49.704Z,98124.17
2023-02-02T19:58:24.127Z,98131.33
2023-02-02T20:00:57.877Z,98136.21
2023-02-02T20:03:37.438Z,98143.66
2023-02-02T20:06:13.427Z,98146.73
2023-02-02T20:08:46.600Z,98149.79
2023-02-02T20:11:32.942Z,98150.25
2023-02-02T20:14:22.577Z,98149.62
2023-02-02T20:16:59.465Z,98155.27
2023-02-02T20:19:37.047Z,98157.48
2023-02-02T20:22:23.897Z,98162.56
2023-02-02T20:24:56.743Z,98163.71
2023-02-02T20:27:30.901Z,98163.02
2023-02-02T20:30:19.626Z,98173.39
2023-02-02T20:32:55.423Z,98178.20
2023-02-02T20:35:36.195Z,98179.69
2023-02-02T20:38:21.568Z,98182.40
2023-02-02T20:40:54.044Z,98189.02
2023-02-02T20:43:25.787Z,98192.77
2023-02-02T20:45:57.463Z,98198.04
2023-02-02T20:48:27.677Z,98196.65
2023-02-02T20:50:59.359Z,98201.42
2023-02-02T20:53:31.098Z,98204.40
2023-02-02T20:56:02.893Z,98206.21
2023-02-02T20:58:34.697Z,98213.48
2023-02-02T21:01:06.455Z,98216.92
2023-02-02T21:03:38.145Z,98227.73
2023-02-02T21:06:08.365Z,98224.75
2023-02-02T21:08:40.263Z,98234.77
2023-02-02T21:11:12.012Z,98238.93
2023-02-02T21:13:43.680Z,98239.49
2023-02-02T21:16:13.871Z,98243.01
2023-02-02T21:18:47.399Z,98243.67
2023-02-02T21:21:21.016Z,98241.88
2023-02-02T21:23:53.475Z,98237.73
2023-02-02T21:26:30.067Z,98237.70
2023-02-02T21:29:01.843Z,98238.71
2023-02-02T21:31:35.767Z,98244.50
2023-02-02T21:34:08.948Z,98247.23
2023-02-02T21:36:44.014Z,98249.73
2023-02-02T21:39:21.546Z,98255.15
2023-02-02T21:41:59.249Z,98254.06
2023-02-02T21:44:33.095Z,98258.99
2023-02-02T21:47:16.783Z,98259.51
2023-02-02T21:49:48.935Z,98270.10
2023-02-02T21:52:21.864Z,98277.10
2023-02-02T21:54:53.552Z,98280.57
2023-02-02T21:57:26.225Z,98286.17
2023-02-02T21:59:58.561Z,98293.73
2023-02-02T22:02:42.544Z,98291.30
2023-02-02T22:05:22.754Z,98292.66
2023-02-02T22:07:57.702Z,98299.63
2023-02-02T22:10:39.560Z,98299.44
2023-02-02T22:13:14.909Z,98296.38
2023-02-02T22:15:47.720Z,98299.45
2023-02-02T22:18:21.676Z,98314.54
2023-02-02T22:20:56.424Z,98320.81
2023-02-02T22:23:29.831Z,98328.45
2023-02-02T22:26:01.822Z,98334.13
2023-02-02T22:28:40.458Z,98340.14
2023-02-02T22:31:12.730Z,98340.73
2023-02-02T22:33:44.514Z,98340.45
2023-02-02T22:36:14.626Z,98345.42
2023-02-02T22:38:46.546Z,98344.91
2023-02-02T22:41:18.427Z,98341.92
2023-02-02T22:43:50.276Z,98347.90
2023-02-02T22:46:21.989Z,98347.64
2023-02-02T22:48:52.143Z,98353.31
2023-02-02T22:51:23.777Z,98358.17
2023-02-02T22:53:53.919Z,98362.80
2023-02-02T22:56:26.152Z,98362.81
2023-02-02T22:58:57.755Z,98367.02
2023-02-02T23:01:29.454Z,98366.52
2023-02-02T23:03:59.619Z,98370.40
2023-02-02T23:06:31.417Z,98372.56
2023-02-02T23:09:04.659Z,98375.73
2023-02-02T23:11:34.798Z,98371.58
2023-02-02T23:14:06.403Z,98370.95
2023-02-02T23:16:36.531Z,98371.20
2023-02-02T23:19:08.221Z,98374.67
2023-02-02T23:21:38.334Z,98381.03
2023-02-02T23:24:12.141Z,98388.58
2023-02-02T23:26:43.958Z,98387.81
2023-02-02T23:29:15.758Z,98389.81
2023-02-02T23:31:47.488Z,98391.48
2023-02-02T23:34:19.753Z,98393.92
2023-02-02T23:36:53.553Z,98393.48
2023-02-02T23:39:25.517Z,98396.26
2023-02-02T23:41:57.169Z,98394.70
2023-02-02T23:44:27.263Z,98396.27
2023-02-02T23:46:59.971Z,98393.56
2023-02-02T23:49:33.881Z,98393.17
2023-02-02T23:52:06.016Z,98401.79
2023-02-02T23:54:37.898Z,98407.87
2023-02-02T23:57:09.666Z,98413.64
2023-02-02T23:59:41.400Z,98423.46
